Portada
METAR-TAF:

METAR-TAF

Aeroports :

New Bedford, Massachusetts, Estats Units d'Amèrica

latitud: 41-40-31N, longitud: 070-57-25W, altitud: 24 m

Observació

L'informe es va fer fa 47 minuts, a les 17:00 UTC
Vent 5 kt del Est
Temperatura 18°C
Humitat 88%
Pressió 1024 hPa
Visibilitat: 16.1 km
Cel cobert a una alçada de 1200 ft

METAR: KEWB 251700Z 10005KT 10SM OVC012 18/16 A3024 RMK AO2 T01780156

Hora: 13:47 (17:47 UTC)


TAF: manca

Observacions i pronòstics meteorològics de més de 4000 aeroports (METAR i TAF).

Les estacions disponibles són els punts grocs i vermells al mapa.

Posi el ratolí al punt desitjat per veure el nom de l'estació.

Feu clic per veure les observacions i els pronòstics meteorològics.

Per canviar el mapa: feu clic els botons verds amb una creu de color negre per apropar; al botó verd amb un guió per allunyar la imatge; o en les fletxes verdes per a mapes adjacents.


METAR-TAF: